Time;durP1;ratioP1;P1;durP2;ratioP2;P2;SDS_P1;SDS_P2;PMS_P1;PMS_P2;Temp;Humidity;BMP_temperature;BMP_pressure;BME280_temperature;BME280_humidity;BME280_pressure;Samples;Min_cycle;Max_cycle;Signal;HPM_P1;HPM_P2
2023/03/12 00:00:53;;;;;;;3.67;1.23;;;;;;;0.11;82.99;99485.56;12184031;19;20043;-84
2023/03/12 00:04:55;;;;;;;2.17;1.67;;;;;;;0.22;82.96;99477.78;12201567;19;20045;-83
2023/03/12 00:08:57;;;;;;;3.33;1.27;;;;;;;0.36;82.57;99470.63;12204933;19;20038;-83
2023/03/12 00:13:00;;;;;;;5.43;1.67;;;;;;;0.48;82.28;99470.09;12184093;19;20019;-83
2023/03/12 00:17:01;;;;;;;5.05;1.52;;;;;;;0.55;82.00;99465.59;12213301;19;20010;-83
2023/03/12 00:21:03;;;;;;;3.45;0.85;;;;;;;0.56;81.81;99472.69;12212877;19;20018;-83
2023/03/12 00:25:11;;;;;;;6.32;1.58;;;;;;;0.55;81.35;99492.72;12204479;19;20015;-82
2023/03/12 00:29:13;;;;;;;4.60;1.40;;;;;;;0.48;81.53;99489.94;12263533;19;20010;-85
2023/03/12 00:33:14;;;;;;;8.33;1.00;;;;;;;0.41;82.22;99486.31;12249698;19;20014;-84
2023/03/12 00:37:17;;;;;;;2.70;1.05;;;;;;;0.35;82.46;99485.19;12192637;19;20417;-84
2023/03/12 00:41:19;;;;;;;3.42;1.02;;;;;;;0.31;82.62;99480.38;12211458;19;20035;-83
2023/03/12 00:45:21;;;;;;;2.75;1.00;;;;;;;0.31;83.08;99481.22;12185669;19;20029;-83
2023/03/12 00:49:22;;;;;;;2.63;1.15;;;;;;;0.31;83.60;99481.22;12217036;19;20047;-83
2023/03/12 00:53:24;;;;;;;3.00;1.27;;;;;;;0.36;83.81;99489.63;12221450;19;20007;-85
2023/03/12 00:57:25;;;;;;;4.63;2.72;;;;;;;0.49;83.57;99485.34;12196369;19;20070;-83
2023/03/12 01:01:27;;;;;;;11.75;2.83;;;;;;;0.63;83.21;99481.75;12254744;19;20023;-86
2023/03/12 01:05:29;;;;;;;7.97;2.00;;;;;;;0.73;83.00;99474.13;12269345;19;20043;-85
2023/03/12 01:09:33;;;;;;;1.73;1.08;;;;;;;0.84;82.63;99470.88;12214696;19;20019;-83
2023/03/12 01:13:35;;;;;;;1.48;1.10;;;;;;;0.94;82.46;99456.97;12199207;19;20006;-82
2023/03/12 01:17:37;;;;;;;3.70;1.20;;;;;;;1.02;82.16;99467.69;12199353;19;20029;-85
2023/03/12 01:21:38;;;;;;;5.60;1.10;;;;;;;1.07;81.78;99472.53;12175819;19;20057;-83
2023/03/12 01:25:40;;;;;;;2.30;0.80;;;;;;;1.10;82.14;99472.13;12196227;19;20029;-82
2023/03/12 01:29:42;;;;;;;2.50;0.90;;;;;;;1.11;82.00;99471.94;12197386;19;20519;-83
2023/03/12 01:33:47;;;;;;;4.97;1.23;;;;;;;1.09;82.43;99478.59;12177241;19;20011;-83
2023/03/12 01:37:49;;;;;;;1.38;0.68;;;;;;;1.05;83.02;99477.31;12197691;19;20074;-83
2023/03/12 01:41:51;;;;;;;2.53;1.13;;;;;;;0.99;83.07;99469.97;12200519;19;20316;-83
2023/03/12 01:46:09;;;;;;;1.85;0.95;;;;;;;0.92;83.40;99478.03;12168526;19;20014;-82
2023/03/12 01:50:11;;;;;;;3.70;1.02;;;;;;;0.90;83.76;99480.13;12196447;19;20002;-82
2023/03/12 01:54:38;;;;;;;3.33;0.90;;;;;;;0.93;83.63;99468.03;12196651;19;20007;-83
2023/03/12 01:58:46;;;;;;;2.38;0.98;;;;;;;0.98;83.22;99462.84;12170572;19;20002;-82
2023/03/12 02:02:49;;;;;;;3.13;1.00;;;;;;;1.03;83.06;99461.22;12199298;19;20010;-83
2023/03/12 02:07:07;;;;;;;1.90;0.80;;;;;;;1.13;82.26;99458.16;12177898;19;21468;-83
2023/03/12 02:11:09;;;;;;;2.05;1.00;;;;;;;1.20;82.00;99450.94;12203298;19;20006;-82
2023/03/12 02:15:11;;;;;;;2.27;0.73;;;;;;;1.27;82.06;99451.81;12202054;19;20014;-83
2023/03/12 02:19:26;;;;;;;2.72;0.88;;;;;;;1.35;81.99;99443.50;12188526;19;20024;-82
2023/03/12 02:23:32;;;;;;;6.57;0.95;;;;;;;1.42;81.48;99448.13;12208303;19;21463;-82
2023/03/12 02:27:36;;;;;;;3.20;0.90;;;;;;;1.42;81.78;99434.56;12187150;19;20011;-82
2023/03/12 02:31:43;;;;;;;1.90;1.00;;;;;;;1.44;81.95;99432.50;12207517;19;20019;-81
2023/03/12 02:35:46;;;;;;;1.65;0.80;;;;;;;1.46;82.35;99438.53;12206368;19;20074;-83
2023/03/12 02:40:28;;;;;;;5.82;1.15;;;;;;;1.49;82.31;99435.47;12185820;19;20026;-83
2023/03/12 02:44:32;;;;;;;5.55;0.98;;;;;;;1.47;82.11;99438.34;12199999;19;20637;-84
2023/03/12 02:48:34;;;;;;;4.13;0.90;;;;;;;1.48;82.36;99431.88;12179704;19;20031;-83
2023/03/12 02:52:37;;;;;;;2.28;0.88;;;;;;;1.51;82.11;99427.94;12202364;19;20010;-83
2023/03/12 02:56:39;;;;;;;2.05;0.75;;;;;;;1.53;82.44;99429.41;12202353;19;20002;-84
2023/03/12 03:00:41;;;;;;;;;;;;;;;1.51;83.17;99430.66;12181820;19;20790;-82
2023/03/12 03:04:42;;;;;;;2.38;1.02;;;;;;;1.46;83.17;99427.69;12203566;19;19914;-82
2023/03/12 03:08:44;;;;;;;3.20;1.40;;;;;;;1.45;83.47;99423.31;12204792;19;20873;-82
2023/03/12 03:12:46;;;;;;;1.27;0.90;;;;;;;1.49;83.91;99413.75;12177955;19;20042;-81
2023/03/12 03:16:49;;;;;;;1.70;0.77;;;;;;;1.60;83.21;99405.00;12204065;19;20006;-82
2023/03/12 03:20:56;;;;;;;2.33;0.80;;;;;;;1.68;83.00;99407.56;12206370;19;20082;-83
2023/03/12 03:24:58;;;;;;;4.32;1.23;;;;;;;1.74;82.20;99406.72;12181599;19;20006;-83
2023/03/12 03:29:00;;;;;;;2.87;0.90;;;;;;;1.78;81.85;99407.16;12205947;19;20003;-82
2023/03/12 03:33:02;;;;;;;1.37;0.80;;;;;;;1.78;81.60;99410.72;12200709;19;20010;-82
2023/03/12 03:37:04;;;;;;;5.00;0.80;;;;;;;1.80;81.32;99408.63;12183331;19;20034;-82
2023/03/12 03:41:07;;;;;;;1.98;0.93;;;;;;;1.88;82.08;99409.53;12204488;19;20015;-82
2023/03/12 03:45:14;;;;;;;1.42;0.80;;;;;;;1.90;81.92;99405.53;12201436;19;20356;-82
2023/03/12 03:49:17;;;;;;;2.55;0.90;;;;;;;1.87;81.52;99405.09;12180640;19;20006;-82
2023/03/12 03:53:19;;;;;;;2.03;0.80;;;;;;;1.78;81.73;99399.84;12198101;19;20007;-82
2023/03/12 03:57:22;;;;;;;1.40;0.98;;;;;;;1.75;82.50;99394.81;12202555;19;19999;-83
2023/03/12 04:01:54;;;;;;;1.23;0.90;;;;;;;1.81;82.41;99404.03;12184435;19;20086;-83
2023/03/12 04:05:58;;;;;;;1.45;0.80;;;;;;;1.89;81.73;99400.31;12203774;19;20015;-83
2023/03/12 04:10:00;;;;;;;1.17;0.63;;;;;;;1.94;82.15;99401.38;12184137;19;20007;-83
2023/03/12 04:14:02;;;;;;;2.78;0.95;;;;;;;1.98;82.49;99404.53;12208664;19;20082;-84
2023/03/12 04:18:06;;;;;;;1.75;0.88;;;;;;;1.99;82.08;99415.22;12206270;19;20016;-84
2023/03/12 04:22:08;;;;;;;3.05;0.80;;;;;;;1.92;81.43;99425.19;12187361;19;20003;-82
2023/03/12 04:26:10;;;;;;;1.90;0.93;;;;;;;1.94;81.50;99422.28;12204149;19;20010;-84
2023/03/12 04:30:12;;;;;;;2.20;0.90;;;;;;;2.01;82.24;99404.94;12204927;19;20003;-83
2023/03/12 04:34:13;;;;;;;1.25;0.80;;;;;;;2.07;82.24;99416.06;12180888;19;20385;-83
2023/03/12 04:38:22;;;;;;;2.90;0.80;;;;;;;2.09;82.00;99397.66;12205424;19;20006;-83
2023/03/12 04:42:25;;;;;;;3.22;0.82;;;;;;;2.11;81.76;99392.84;12205823;19;21000;-83
2023/03/12 04:46:27;;;;;;;1.73;0.75;;;;;;;2.15;82.03;99394.97;12182891;19;20030;-83
2023/03/12 04:50:29;;;;;;;2.15;1.08;;;;;;;2.21;81.97;99390.59;12206870;19;20011;-83
2023/03/12 04:54:32;;;;;;;4.88;1.35;;;;;;;2.24;80.94;99395.63;12207639;19;20074;-82
2023/03/12 04:58:34;;;;;;;;;;;;;;;2.25;80.44;99384.50;12205205;19;20584;-84
2023/03/12 05:02:36;;;;;;;4.03;1.20;;;;;;;2.28;79.86;99388.72;12212788;19;20416;-83
2023/03/12 05:06:38;;;;;;;4.33;1.40;;;;;;;2.30;79.75;99383.91;12218342;19;20021;-83
2023/03/12 05:10:44;;;;;;;2.00;1.20;;;;;;;2.31;80.45;99388.28;12233474;19;20002;-85
2023/03/12 05:14:48;;;;;;;2.85;1.13;;;;;;;2.34;80.49;99387.03;12249927;19;20002;-83
2023/03/12 05:18:49;;;;;;;4.73;1.40;;;;;;;2.34;80.92;99387.88;12193520;19;20029;-83
2023/03/12 05:22:52;;;;;;;2.07;1.20;;;;;;;2.39;80.34;99392.72;12205984;19;20015;-82
2023/03/12 05:26:54;;;;;;;2.42;1.10;;;;;;;2.38;80.45;99388.28;12207140;19;21285;-83
2023/03/12 05:31:00;;;;;;;3.67;0.90;;;;;;;2.35;80.06;99394.16;12183809;19;20030;-84
2023/03/12 05:35:03;;;;;;;2.38;0.95;;;;;;;2.34;80.18;99389.75;12201788;19;20011;-83
2023/03/12 05:39:05;;;;;;;5.40;1.20;;;;;;;2.32;80.51;99395.44;12203098;19;20007;-83
2023/03/12 05:43:08;;;;;;;;;;;;;;;2.30;82.28;99383.91;12180257;19;20026;-85
2023/03/12 05:47:10;;;;;;;3.58;0.90;;;;;;;2.34;82.61;99382.44;12218757;19;20475;-83
2023/03/12 05:51:13;;;;;;;4.05;1.42;;;;;;;2.40;81.84;99373.44;12215367;19;20003;-82
2023/03/12 05:55:15;;;;;;;3.30;1.95;;;;;;;2.44;82.38;99365.72;12231160;19;20069;-85
2023/03/12 05:59:18;;;;;;;2.22;0.90;;;;;;;2.51;81.97;99363.84;12260579;19;20012;-84
2023/03/12 06:03:20;;;;;;;3.23;1.23;;;;;;;2.43;81.99;99362.16;12268844;19;20002;-84
2023/03/12 06:07:21;;;;;;;3.55;1.30;;;;;;;2.44;82.31;99363.84;12239460;19;20006;-84
2023/03/12 06:11:23;;;;;;;4.13;1.10;;;;;;;2.41;81.64;99358.84;12215545;19;20011;-85
2023/03/12 06:15:25;;;;;;;5.03;1.83;;;;;;;2.31;80.87;99365.72;12213953;19;20409;-84
2023/03/12 06:19:27;;;;;;;3.30;1.60;;;;;;;2.17;79.31;99373.88;12192306;19;20013;-80
2023/03/12 06:23:29;;;;;;;4.60;1.90;;;;;;;2.08;79.36;99372.34;12211695;19;20617;-83
2023/03/12 06:27:31;;;;;;;6.47;2.10;;;;;;;2.07;78.85;99376.13;12214263;19;20704;-84
2023/03/12 06:31:33;;;;;;;8.33;2.53;;;;;;;2.08;78.96;99375.06;12194259;19;20015;-84
2023/03/12 06:35:38;;;;;;;4.15;2.53;;;;;;;2.09;79.36;99370.50;12213691;19;20593;-85
2023/03/12 06:39:40;;;;;;;4.03;2.25;;;;;;;2.21;79.87;99371.56;12239261;19;20024;-85
2023/03/12 06:43:43;;;;;;;5.13;2.50;;;;;;;2.36;80.15;99374.09;12231101;19;20014;-84
2023/03/12 06:47:46;;;;;;;6.55;2.38;;;;;;;2.50;80.23;99379.34;12254568;19;20006;-85
2023/03/12 06:51:48;;;;;;;5.40;2.83;;;;;;;2.63;79.64;99374.94;12252642;19;19997;-85
2023/03/12 06:55:50;;;;;;;8.03;2.50;;;;;;;2.76;79.58;99363.22;12256655;19;20014;-85
2023/03/12 06:59:52;;;;;;;10.17;4.13;;;;;;;2.82;80.26;99370.53;12236400;19;20802;-84
2023/03/12 07:03:54;;;;;;;4.40;2.55;;;;;;;2.80;80.32;99370.75;12222228;19;20040;-85
2023/03/12 07:07:56;;;;;;;7.10;2.13;;;;;;;2.89;81.11;99357.78;12252742;19;20006;-86
2023/03/12 07:11:58;;;;;;;4.38;2.33;;;;;;;3.10;81.55;99364.88;12237960;19;20017;-84
2023/03/12 07:16:00;;;;;;;6.10;2.70;;;;;;;3.24;81.92;99363.75;12202553;19;20015;-85
2023/03/12 07:20:03;;;;;;;6.90;2.60;;;;;;;3.25;82.84;99380.97;12224972;19;20014;-85
2023/03/12 07:24:06;;;;;;;4.97;2.50;;;;;;;3.27;84.84;99371.53;12223472;19;20010;-85
2023/03/12 07:28:09;;;;;;;5.35;2.35;;;;;;;3.39;85.96;99369.81;12205600;19;20244;-85
2023/03/12 07:32:11;;;;;;;5.93;2.70;;;;;;;3.54;84.84;99363.25;12216696;19;20019;-84
2023/03/12 07:36:13;;;;;;;6.88;2.42;;;;;;;3.54;85.63;99357.81;12197564;19;20051;-85
2023/03/12 07:40:14;;;;;;;8.70;2.93;;;;;;;3.53;88.13;99334.34;12197170;19;20006;-84
2023/03/12 07:44:17;;;;;;;6.27;3.93;;;;;;;3.58;90.26;99340.81;12216754;19;20007;-82
2023/03/12 07:48:18;;;;;;;7.20;3.92;;;;;;;3.65;92.11;99348.97;12208951;19;20708;-82
2023/03/12 07:52:21;;;;;;;5.73;3.27;;;;;;;3.71;93.27;99336.38;12186396;19;20078;-80
2023/03/12 07:56:23;;;;;;;5.50;3.42;;;;;;;3.75;95.53;99353.94;12204247;19;20074;-81
2023/03/12 08:00:26;;;;;;;8.98;3.78;;;;;;;3.56;96.22;99351.09;12208885;19;20023;-80
2023/03/12 08:04:28;;;;;;;8.63;3.60;;;;;;;3.42;97.13;99363.09;12180104;19;20078;-80
2023/03/12 08:08:31;;;;;;;;;;;;;;;3.35;99.03;99351.38;12208115;19;20033;-79
2023/03/12 08:12:33;;;;;;;7.25;3.33;;;;;;;3.39;99.18;99356.19;12208079;19;19907;-82
2023/03/12 08:16:35;;;;;;;12.40;3.93;;;;;;;3.39;99.99;99364.38;12188037;19;20102;-80
2023/03/12 08:20:37;;;;;;;10.45;3.95;;;;;;;3.35;100.00;99368.56;12208306;19;20010;-82
2023/03/12 08:24:38;;;;;;;8.57;3.97;;;;;;;3.36;100.00;99358.50;12205965;19;20014;-81
2023/03/12 08:28:40;;;;;;;15.18;5.75;;;;;;;3.32;100.00;99366.25;12185737;19;20953;-82
2023/03/12 08:32:42;;;;;;;11.23;5.45;;;;;;;3.27;100.00;99367.94;12206023;19;20463;-81
2023/03/12 08:36:43;;;;;;;15.40;5.28;;;;;;;3.32;100.00;99365.44;12186102;19;20002;-82
2023/03/12 08:40:45;;;;;;;13.18;6.15;;;;;;;3.38;100.00;99372.75;12207999;19;20007;-82
2023/03/12 08:44:47;;;;;;;15.57;7.70;;;;;;;3.43;100.00;99362.06;12204485;19;20006;-82
2023/03/12 08:48:48;;;;;;;19.00;7.15;;;;;;;3.34;100.00;99363.34;12181242;19;20023;-80
2023/03/12 08:52:50;;;;;;;17.75;7.90;;;;;;;3.40;100.00;99366.03;12202252;19;20417;-81
2023/03/12 08:56:52;;;;;;;17.48;8.23;;;;;;;3.47;100.00;99367.91;12203853;19;20046;-82
2023/03/12 09:00:55;;;;;;;10.50;6.97;;;;;;;3.42;100.00;99369.41;12184938;19;20006;-81
2023/03/12 09:04:56;;;;;;;13.20;6.75;;;;;;;3.45;100.00;99359.97;12203233;19;20014;-81
2023/03/12 09:09:03;;;;;;;14.88;7.18;;;;;;;3.56;100.00;99351.09;12204222;19;20011;-84
2023/03/12 09:13:06;;;;;;;15.13;7.25;;;;;;;3.59;100.00;99344.38;12181590;19;20066;-81
2023/03/12 09:17:08;;;;;;;14.90;7.85;;;;;;;3.69;100.00;99350.22;12204624;19;20007;-82
2023/03/12 09:21:09;;;;;;;14.02;7.15;;;;;;;3.91;100.00;99352.63;12204748;19;20002;-84
2023/03/12 09:25:11;;;;;;;15.00;7.45;;;;;;;4.06;100.00;99359.44;12180597;19;20014;-81
2023/03/12 09:29:13;;;;;;;12.00;7.45;;;;;;;4.10;100.00;99352.53;12207273;19;20010;-79
2023/03/12 09:33:16;;;;;;;15.87;7.47;;;;;;;4.13;100.00;99361.31;12202539;19;20464;-81
2023/03/12 09:37:17;;;;;;;18.13;7.35;;;;;;;4.13;100.00;99366.75;12183660;19;20010;-81
2023/03/12 09:41:25;;;;;;;16.75;7.88;;;;;;;4.17;100.00;99368.84;12204038;19;20002;-81
2023/03/12 09:45:31;;;;;;;12.65;7.18;;;;;;;4.31;100.00;99353.22;12204330;19;20003;-80
2023/03/12 09:49:39;;;;;;;15.07;7.60;;;;;;;4.46;100.00;99356.47;12183842;19;20435;-81
2023/03/12 09:53:46;;;;;;;18.40;7.97;;;;;;;4.65;100.00;99351.09;12244571;19;20063;-86
2023/03/12 09:57:50;;;;;;;15.32;8.40;;;;;;;4.80;100.00;99362.50;12230349;19;20009;-90
2023/03/12 10:01:57;;;;;;;13.98;6.95;;;;;;;4.88;100.00;99355.91;12217383;19;20055;-84
2023/03/12 10:06:11;;;;;;;12.45;7.00;;;;;;;4.97;100.00;99355.41;12209004;19;20014;-87
2023/03/12 10:10:25;;;;;;;9.88;6.07;;;;;;;5.08;100.00;99355.72;12187750;19;20010;-82
2023/03/12 10:14:40;;;;;;;11.63;6.93;;;;;;;5.23;100.00;99367.13;12205298;19;20014;-81
2023/03/12 10:18:51;;;;;;;12.85;6.50;;;;;;;5.30;100.00;99367.91;12207345;19;20011;-86
2023/03/12 10:23:06;;;;;;;13.88;6.15;;;;;;;5.58;100.00;99375.56;12228112;19;20013;-88
2023/03/12 10:27:12;;;;;;;14.18;6.32;;;;;;;5.57;100.00;99373.06;12215553;19;20712;-82
2023/03/12 10:31:26;;;;;;;12.57;7.03;;;;;;;5.91;100.00;99375.16;12193833;19;20503;-82
2023/03/12 10:35:29;;;;;;;12.65;7.57;;;;;;;6.09;100.00;99366.13;12218259;19;20013;-83
2023/03/12 10:39:31;;;;;;;13.77;7.40;;;;;;;6.28;100.00;99369.66;12213756;19;20013;-81
2023/03/12 10:43:34;;;;;;;14.02;7.35;;;;;;;6.44;100.00;99367.31;12194889;19;20468;-82
2023/03/12 10:47:38;;;;;;;14.15;7.95;;;;;;;6.58;100.00;99363.31;12211085;19;20476;-81
2023/03/12 10:51:59;;;;;;;15.55;8.32;;;;;;;6.64;100.00;99367.84;12210333;19;20010;-81
2023/03/12 10:56:08;;;;;;;16.25;8.63;;;;;;;6.68;100.00;99358.09;12195112;19;20006;-81
2023/03/12 11:00:27;;;;;;;14.00;8.48;;;;;;;6.69;100.00;99362.47;12213864;19;20510;-83
2023/03/12 11:04:32;;;;;;;18.08;9.23;;;;;;;6.49;100.00;99365.56;12188941;19;21284;-81
2023/03/12 11:08:36;;;;;;;16.92;8.55;;;;;;;6.52;100.00;99361.50;12215869;19;20030;-84
2023/03/12 11:12:39;;;;;;;12.38;8.27;;;;;;;6.88;100.00;99355.03;12214430;19;20574;-80
2023/03/12 11:16:40;;;;;;;;;;;;;;;7.18;100.00;99357.66;12197446;19;20099;-80
2023/03/12 11:20:42;;;;;;;16.15;8.20;;;;;;;7.44;100.00;99353.56;12212410;19;19914;-82
2023/03/12 11:24:59;;;;;;;14.27;7.60;;;;;;;7.69;100.00;99361.50;12179947;19;20005;-81
2023/03/12 11:29:28;;;;;;;13.10;7.63;;;;;;;7.84;100.00;99365.66;12220163;19;20011;-82
2023/03/12 11:33:30;;;;;;;14.30;8.35;;;;;;;7.96;100.00;99358.22;12207236;19;20014;-79
2023/03/12 11:38:02;;;;;;;15.98;9.40;;;;;;;7.94;100.00;99350.25;12184390;19;20030;-80
2023/03/12 11:42:39;;;;;;;14.20;9.32;;;;;;;7.86;100.00;99353.34;12209518;19;20463;-81
2023/03/12 11:46:55;;;;;;;16.10;9.50;;;;;;;8.25;100.00;99353.56;12186254;19;20014;-80
2023/03/12 11:51:34;;;;;;;15.70;8.68;;;;;;;8.20;100.00;99351.53;12204341;19;20022;-81
2023/03/12 11:55:56;;;;;;;18.58;10.55;;;;;;;8.21;100.00;99344.16;12186123;19;20404;-82
2023/03/12 12:00:17;;;;;;;14.07;9.32;;;;;;;8.45;100.00;99333.94;12202993;19;20010;-80
2023/03/12 12:04:22;;;;;;;15.32;8.57;;;;;;;8.43;100.00;99327.84;12183733;19;20061;-83
2023/03/12 12:08:31;;;;;;;12.10;7.93;;;;;;;8.39;100.00;99330.25;12217756;19;20019;-84
2023/03/12 12:12:42;;;;;;;14.55;8.73;;;;;;;8.72;100.00;99314.06;12220280;19;20010;-83
2023/03/12 12:17:09;;;;;;;13.50;8.13;;;;;;;9.00;100.00;99311.19;12194445;19;20014;-83
2023/03/12 12:21:25;;;;;;;14.98;8.95;;;;;;;9.26;100.00;99317.91;12212632;19;20073;-82
2023/03/12 12:25:32;;;;;;;11.85;8.27;;;;;;;9.11;100.00;99315.75;12181423;19;20922;-79
2023/03/12 12:29:59;;;;;;;13.57;7.55;;;;;;;9.10;100.00;99305.00;12215020;19;20384;-81
2023/03/12 12:34:15;;;;;;;15.88;8.30;;;;;;;9.63;100.00;99310.94;12205324;19;20016;-80
2023/03/12 12:38:29;;;;;;;12.77;7.95;;;;;;;10.12;98.29;99294.47;12260607;19;20002;-85
2023/03/12 12:42:33;;;;;;;12.13;7.05;;;;;;;10.44;95.94;99300.88;12261437;19;20041;-85
2023/03/12 12:46:38;;;;;;;15.05;8.57;;;;;;;10.48;95.44;99306.69;12196082;19;20369;-81
2023/03/12 12:50:42;;;;;;;13.18;7.13;;;;;;;10.51;95.02;99299.81;12200075;19;20010;-80
2023/03/12 12:54:55;;;;;;;10.95;7.18;;;;;;;10.41;95.76;99306.91;12180412;19;20007;-81
2023/03/12 12:59:20;;;;;;;13.52;7.63;;;;;;;10.36;96.38;99300.53;12207763;19;20010;-83
2023/03/12 13:03:24;;;;;;;11.25;6.90;;;;;;;10.42;97.01;99297.53;12213381;19;20010;-81
2023/03/12 13:07:25;;;;;;;12.45;7.25;;;;;;;10.60;96.85;99295.50;12199431;19;20452;-81
2023/03/12 13:11:37;;;;;;;;;;;;;;;10.93;95.91;99297.94;12213145;19;20006;-81
2023/03/12 13:15:42;;;;;;;9.73;6.30;;;;;;;11.38;94.20;99293.81;12226063;19;19959;-82
2023/03/12 13:19:46;;;;;;;10.27;6.53;;;;;;;11.60;92.07;99288.16;12201333;19;20499;-83
2023/03/12 13:24:22;;;;;;;15.20;6.65;;;;;;;11.57;92.41;99285.94;12220935;19;20124;-80
2023/03/12 13:28:25;;;;;;;14.43;7.25;;;;;;;11.52;91.27;99272.09;12197673;19;20014;-81
2023/03/12 13:32:35;;;;;;;13.03;6.23;;;;;;;11.32;92.81;99258.22;12215359;19;20031;-80
2023/03/12 13:36:37;;;;;;;12.88;6.88;;;;;;;11.46;93.58;99262.13;12217792;19;20003;-80
2023/03/12 13:40:52;;;;;;;9.93;6.90;;;;;;;11.52;92.97;99251.97;12197154;19;20023;-81
2023/03/12 13:44:54;;;;;;;15.98;6.78;;;;;;;11.49;93.32;99269.06;12219092;19;20039;-81
2023/03/12 13:49:02;;;;;;;15.13;6.40;;;;;;;11.28;94.49;99263.44;12201262;19;20097;-81
2023/03/12 13:53:07;;;;;;;14.32;7.35;;;;;;;11.27;95.31;99263.69;12214320;19;20050;-82
2023/03/12 13:57:40;;;;;;;13.52;6.30;;;;;;;11.43;94.70;99259.09;12218815;19;20019;-80
2023/03/12 14:01:47;;;;;;;11.77;6.88;;;;;;;11.51;94.41;99253.03;12191595;19;20472;-81
2023/03/12 14:06:03;;;;;;;9.77;5.22;;;;;;;11.88;93.42;99254.88;12217619;19;20006;-81
2023/03/12 14:10:28;;;;;;;13.00;5.80;;;;;;;12.23;91.62;99260.47;12207363;19;20020;-81
2023/03/12 14:14:56;;;;;;;12.32;5.20;;;;;;;12.34;90.49;99266.00;12224099;19;20006;-81
2023/03/12 14:18:58;;;;;;;12.88;5.22;;;;;;;12.37;90.86;99265.44;12205146;19;20014;-81
2023/03/12 14:23:04;;;;;;;8.63;4.80;;;;;;;12.32;90.88;99256.06;12226890;19;20732;-80
2023/03/12 14:27:15;;;;;;;10.52;3.95;;;;;;;12.26;91.56;99254.41;12228047;19;20259;-81
2023/03/12 14:31:25;;;;;;;13.90;5.35;;;;;;;12.25;91.17;99252.72;12208134;19;20018;-82
2023/03/12 14:35:43;;;;;;;12.50;5.47;;;;;;;12.19;90.72;99242.75;12229702;19;20068;-80
2023/03/12 14:39:54;;;;;;;16.08;5.53;;;;;;;12.14;91.36;99228.97;12240025;19;20014;-82
2023/03/12 14:44:04;;;;;;;11.60;4.40;;;;;;;12.18;91.52;99221.78;12258440;19;20453;-82
2023/03/12 14:48:10;;;;;;;10.80;4.70;;;;;;;12.22;91.45;99220.13;12239179;19;20006;-82
2023/03/12 14:52:21;;;;;;;16.60;5.05;;;;;;;12.48;90.94;99223.72;12213349;19;20006;-83
2023/03/12 14:56:29;;;;;;;14.55;3.50;;;;;;;12.85;86.21;99211.53;12225064;19;20006;-83
2023/03/12 15:00:32;;;;;;;11.82;3.05;;;;;;;13.20;83.56;99218.06;12232550;19;20063;-81
2023/03/12 15:04:34;;;;;;;13.80;2.78;;;;;;;13.29;79.90;99216.41;12206308;19;20095;-83
2023/03/12 15:08:40;;;;;;;14.40;2.83;;;;;;;13.37;77.08;99231.59;12226190;19;20010;-82
2023/03/12 15:12:44;;;;;;;13.70;3.58;;;;;;;13.38;78.00;99222.19;12216554;19;20010;-80
2023/03/12 15:16:47;;;;;;;15.90;4.10;;;;;;;13.33;79.25;99222.22;12225169;19;20014;-82
2023/03/12 15:20:56;;;;;;;13.68;3.50;;;;;;;13.30;79.23;99215.31;12226987;19;20074;-83
2023/03/12 15:25:02;;;;;;;12.27;3.60;;;;;;;13.21;79.23;99220.56;12200533;19;20010;-83
2023/03/12 15:29:26;;;;;;;12.80;3.40;;;;;;;13.21;79.20;99211.44;12222849;19;20011;-80
2023/03/12 15:33:28;;;;;;;9.35;3.50;;;;;;;13.23;79.21;99196.19;12214836;19;20037;-80
2023/03/12 15:37:34;;;;;;;15.25;3.95;;;;;;;13.35;79.57;99187.59;12198022;19;20098;-82
2023/03/12 15:41:47;;;;;;;14.77;3.63;;;;;;;13.30;79.60;99209.78;12216460;19;20010;-83
2023/03/12 15:46:04;;;;;;;16.50;3.75;;;;;;;13.32;79.96;99204.78;12193728;19;20007;-81
2023/03/12 15:50:17;;;;;;;12.38;2.80;;;;;;;13.31;79.68;99216.97;12210275;19;20009;-81
2023/03/12 15:54:18;;;;;;;15.13;2.92;;;;;;;13.18;80.04;99203.72;12212553;19;20412;-81
2023/03/12 15:58:32;;;;;;;10.98;3.55;;;;;;;13.09;79.60;99206.22;12195835;19;20408;-80
2023/03/12 16:02:36;;;;;;;12.27;4.03;;;;;;;13.10;79.55;99207.88;12215466;19;20010;-80
2023/03/12 16:06:41;;;;;;;13.77;3.25;;;;;;;13.13;79.21;99206.47;12211767;19;20449;-81
2023/03/12 16:10:45;;;;;;;9.85;3.35;;;;;;;13.11;79.15;99214.22;12197333;19;20585;-80
2023/03/12 16:14:47;;;;;;;10.20;3.17;;;;;;;13.09;79.36;99200.69;12214254;19;20018;-80
2023/03/12 16:18:49;;;;;;;10.15;2.78;;;;;;;13.00;79.55;99208.72;12194114;19;20648;-80
2023/03/12 16:22:50;;;;;;;13.55;3.33;;;;;;;12.88;78.51;99210.97;12202992;19;20007;-79
2023/03/12 16:26:56;;;;;;;13.63;2.90;;;;;;;12.87;78.31;99214.00;12215201;19;20010;-80
2023/03/12 16:30:58;;;;;;;12.70;2.67;;;;;;;12.73;78.18;99213.75;12188982;19;20030;-79
2023/03/12 16:35:01;;;;;;;12.57;3.15;;;;;;;12.70;78.43;99206.88;12211853;19;19998;-80
2023/03/12 16:39:03;;;;;;;16.67;3.42;;;;;;;12.67;78.73;99212.94;12213800;19;20011;-80
2023/03/12 16:43:06;;;;;;;15.80;3.17;;;;;;;12.69;78.55;99221.78;12192604;19;20015;-80
2023/03/12 16:47:12;;;;;;;10.55;2.90;;;;;;;12.64;78.73;99224.56;12217981;19;20566;-79
2023/03/12 16:51:14;;;;;;;17.13;3.25;;;;;;;12.57;78.70;99232.28;12217236;19;20054;-79
2023/03/12 16:55:26;;;;;;;13.10;3.10;;;;;;;12.51;78.48;99245.28;12197032;19;20007;-79
2023/03/12 16:59:30;;;;;;;17.25;2.97;;;;;;;12.47;78.79;99241.41;12206587;19;20110;-79
2023/03/12 17:03:35;;;;;;;11.82;2.20;;;;;;;12.43;78.00;99253.28;12206009;19;20018;-79
2023/03/12 17:07:38;;;;;;;13.07;2.95;;;;;;;12.36;77.07;99263.78;12187803;19;20025;-79
2023/03/12 17:11:42;;;;;;;20.52;3.38;;;;;;;12.38;76.88;99251.38;12206563;19;20042;-79
2023/03/12 17:15:44;;;;;;;13.20;3.60;;;;;;;12.28;76.81;99262.38;12210911;19;20010;-79
2023/03/12 17:19:46;;;;;;;17.05;2.78;;;;;;;12.19;76.84;99264.88;12233448;19;20018;-79
2023/03/12 17:23:49;;;;;;;17.23;3.55;;;;;;;12.23;76.75;99271.50;12237807;19;20011;-79
2023/03/12 17:27:51;;;;;;;13.18;2.75;;;;;;;12.20;77.54;99282.28;12219707;19;20011;-79
2023/03/12 17:31:53;;;;;;;12.87;2.83;;;;;;;12.09;77.77;99293.28;12236782;19;20092;-79
2023/03/12 17:36:01;;;;;;;13.85;4.05;;;;;;;12.05;77.01;99283.91;12215136;19;20074;-80
2023/03/12 17:40:07;;;;;;;17.10;2.97;;;;;;;12.03;76.55;99288.88;12204631;19;20000;-79
2023/03/12 17:44:10;;;;;;;13.63;3.50;;;;;;;12.04;76.89;99295.22;12231273;19;20052;-79
2023/03/12 17:48:12;;;;;;;16.45;3.70;;;;;;;11.99;77.14;99304.31;12227238;19;20006;-80
2023/03/12 17:52:14;;;;;;;10.30;2.23;;;;;;;11.90;77.29;99305.97;12202556;19;20006;-80
2023/03/12 17:56:17;;;;;;;16.67;3.42;;;;;;;11.90;77.47;99311.47;12221992;19;20549;-79
2023/03/12 18:00:20;;;;;;;10.20;2.90;;;;;;;11.80;76.58;99309.47;12221619;19;20010;-79
2023/03/12 18:04:34;;;;;;;14.43;3.30;;;;;;;11.85;76.40;99312.28;12206608;19;20368;-81
2023/03/12 18:08:36;;;;;;;13.25;3.17;;;;;;;11.90;76.51;99332.72;12229169;19;20026;-80
2023/03/12 18:12:39;;;;;;;13.30;2.72;;;;;;;11.86;76.46;99335.19;12242021;19;20006;-80
2023/03/12 18:16:40;;;;;;;;;;;;;;;11.83;75.47;99332.94;12220442;19;20389;-80
2023/03/12 18:20:43;;;;;;;17.00;3.13;;;;;;;11.84;75.21;99327.16;12243333;19;19914;-80
2023/03/12 18:24:45;;;;;;;;;;;;;;;11.81;74.89;99324.94;12252629;19;19995;-81
2023/03/12 18:28:47;;;;;;;9.23;2.55;;;;;;;11.83;74.94;99314.44;12271174;19;19931;-84
2023/03/12 18:32:49;;;;;;;11.68;2.95;;;;;;;11.82;74.58;99323.00;12240443;19;20067;-82
2023/03/12 18:36:50;;;;;;;14.15;3.17;;;;;;;11.76;74.60;99322.16;12213742;19;20041;-81
2023/03/12 18:41:01;;;;;;;11.98;2.88;;;;;;;11.79;74.93;99324.38;12234555;19;20114;-80
2023/03/12 18:45:03;;;;;;;16.92;2.75;;;;;;;11.81;75.06;99324.13;12230916;19;20040;-82
2023/03/12 18:49:06;;;;;;;13.75;3.10;;;;;;;11.83;75.03;99322.72;12210551;19;20157;-80
2023/03/12 18:53:08;;;;;;;19.95;3.75;;;;;;;11.79;75.29;99323.53;12228789;19;20007;-81
2023/03/12 18:57:11;;;;;;;17.38;3.42;;;;;;;11.78;75.68;99331.00;12229083;19;20003;-82
2023/03/12 19:01:13;;;;;;;15.07;3.25;;;;;;;11.77;75.57;99323.81;12196466;19;20029;-82
2023/03/12 19:05:15;;;;;;;11.75;2.45;;;;;;;11.76;75.92;99338.72;12224921;19;20116;-81